Time;durP1;ratioP1;P1;durP2;ratioP2;P2;SDS_P1;SDS_P2;PMS_P1;PMS_P2;Temp;Humidity;BMP_temperature;BMP_pressure;BME280_temperature;BME280_humidity;BME280_pressure;Samples;Min_cycle;Max_cycle;Signal;HPM_P1;HPM_P2
2022/10/12 00:01:07;;;;;;;12.02;4.80;;;11.00;73.80;;;;;;5114098;28;20024;-60
2022/10/12 00:03:34;;;;;;;14.25;4.68;;;11.00;73.80;;;;;;5112396;28;20062;-60
2022/10/12 00:06:14;;;;;;;12.13;4.25;;;11.00;73.80;;;;;;5114054;28;20352;-60
2022/10/12 00:08:42;;;;;;;10.77;4.13;;;11.00;73.80;;;;;;5116895;28;20092;-60
2022/10/12 00:11:13;;;;;;;8.95;4.28;;;11.00;74.60;;;;;;5118800;28;20035;-60
2022/10/12 00:13:39;;;;;;;13.40;3.90;;;11.00;74.00;;;;;;5100181;28;20037;-60
2022/10/12 00:16:09;;;;;;;10.93;4.65;;;11.00;73.90;;;;;;5100741;28;20277;-60
2022/10/12 00:18:35;;;;;;;8.82;3.65;;;11.00;73.90;;;;;;5127331;27;20130;-60
2022/10/12 00:21:08;;;;;;;12.73;4.43;;;11.00;73.90;;;;;;5117647;28;20016;-60
2022/10/12 00:23:35;;;;;;;10.07;4.32;;;11.00;74.00;;;;;;5117062;27;20028;-60
2022/10/12 00:26:22;;;;;;;12.25;3.95;;;11.00;74.00;;;;;;5117690;27;20019;-60
2022/10/12 00:28:48;;;;;;;12.48;4.70;;;11.00;74.00;;;;;;5116821;28;20475;-60
2022/10/12 00:31:19;;;;;;;10.70;4.25;;;11.00;74.00;;;;;;5121811;27;20031;-60
2022/10/12 00:33:46;;;;;;;9.48;4.30;;;11.00;74.00;;;;;;5116104;28;20457;-60
2022/10/12 00:36:19;;;;;;;10.80;4.18;;;11.00;74.00;;;;;;5117476;27;20035;-60
2022/10/12 00:38:46;;;;;;;12.77;4.32;;;10.90;74.00;;;;;;5117278;28;20039;-60
2022/10/12 00:41:13;;;;;;;11.65;4.22;;;10.90;74.00;;;;;;5116428;28;20027;-60
2022/10/12 00:43:41;;;;;;;11.90;4.65;;;10.90;74.00;;;;;;5116574;27;20028;-60
2022/10/12 00:46:28;;;;;;;9.98;4.38;;;10.90;74.00;;;;;;5116666;27;20084;-60
2022/10/12 00:49:02;;;;;;;8.95;4.05;;;10.90;74.00;;;;;;5117250;28;20098;-60
2022/10/12 00:51:28;;;;;;;11.73;4.65;;;10.90;74.00;;;;;;5116258;27;20088;-60
2022/10/12 00:54:03;;;;;;;11.10;4.20;;;10.80;73.90;;;;;;5116599;28;20440;-60
2022/10/12 00:56:33;;;;;;;13.20;4.40;;;10.80;73.90;;;;;;5117262;28;20039;-60
2022/10/12 00:59:03;;;;;;;8.20;3.90;;;10.80;74.00;;;;;;5111992;27;20376;-60
2022/10/12 01:01:33;;;;;;;10.63;4.10;;;10.80;74.00;;;;;;5117690;28;20083;-61
2022/10/12 01:03:59;;;;;;;11.75;3.90;;;10.80;74.00;;;;;;5115912;27;20031;-59
2022/10/12 01:06:24;;;;;;;9.82;4.05;;;10.80;74.00;;;;;;5116937;27;20050;-60
2022/10/12 01:08:52;;;;;;;8.20;3.88;;;10.80;74.00;;;;;;5116755;27;20088;-60
2022/10/12 01:11:18;;;;;;;9.90;3.92;;;10.80;74.00;;;;;;5117844;28;20142;-60
2022/10/12 01:13:44;;;;;;;10.90;4.18;;;10.80;74.00;;;;;;5116666;27;20464;-60
2022/10/12 01:16:29;;;;;;;9.95;4.10;;;10.80;74.00;;;;;;5123076;27;20088;-60
2022/10/12 01:19:16;;;;;;;10.38;3.60;;;10.80;74.00;;;;;;5116552;27;20565;-60
2022/10/12 01:21:49;;;;;;;9.55;3.40;;;10.80;74.00;;;;;;5116677;28;20467;-60
2022/10/12 01:24:40;;;;;;;10.52;3.42;;;10.70;74.00;;;;;;5116046;27;20024;-60
2022/10/12 01:27:06;;;;;;;9.73;3.88;;;10.70;74.00;;;;;;5116637;28;20112;-60
2022/10/12 01:29:37;;;;;;;8.80;3.55;;;10.70;74.10;;;;;;5115564;27;20082;-60
2022/10/12 01:32:48;;;;;;;13.52;3.88;;;10.70;74.10;;;;;;5132706;27;20126;-60
2022/10/12 01:35:38;;;;;;;8.70;3.50;;;10.70;74.10;;;;;;5117078;28;20414;-60
2022/10/12 01:38:28;;;;;;;7.85;3.13;;;10.60;74.00;;;;;;5115338;28;20035;-60
2022/10/12 01:40:56;;;;;;;12.23;3.70;;;10.60;74.00;;;;;;5116502;27;20479;-60
2022/10/12 01:43:31;;;;;;;11.77;3.95;;;10.70;74.10;;;;;;5115982;28;20027;-60
2022/10/12 01:46:28;;;;;;;9.18;3.72;;;10.60;74.10;;;;;;5117639;28;20479;-60
2022/10/12 01:48:59;;;;;;;7.53;3.38;;;10.60;74.10;;;;;;5113703;27;20036;-61
2022/10/12 01:51:39;;;;;;;9.57;2.95;;;10.60;74.10;;;;;;5111368;28;20092;-60
2022/10/12 01:54:42;;;;;;;10.52;3.50;;;10.60;74.10;;;;;;5115344;27;20042;-60
2022/10/12 01:57:36;;;;;;;9.90;3.85;;;10.60;74.10;;;;;;5103910;28;20118;-60
2022/10/12 02:00:09;;;;;;;10.38;3.40;;;10.60;74.20;;;;;;5115140;28;20348;-60
2022/10/12 02:02:46;;;;;;;6.55;3.00;;;10.60;74.20;;;;;;5109993;28;20445;-60
2022/10/12 02:05:23;;;;;;;7.85;3.08;;;10.60;74.20;;;;;;5118587;27;20031;-60
2022/10/12 02:08:02;;;;;;;7.43;2.95;;;10.60;74.20;;;;;;5116550;28;20031;-59
2022/10/12 02:10:43;;;;;;;8.82;2.97;;;10.50;74.20;;;;;;5114854;28;20066;-60
2022/10/12 02:13:12;;;;;;;11.18;3.00;;;10.60;74.20;;;;;;5115675;28;20036;-60
2022/10/12 02:15:39;;;;;;;9.52;3.03;;;10.50;74.20;;;;;;5130863;27;20035;-59
2022/10/12 02:18:07;;;;;;;7.85;2.88;;;10.50;74.30;;;;;;5114422;27;20023;-60
2022/10/12 02:20:34;;;;;;;6.65;2.67;;;10.50;74.30;;;;;;5115518;28;20403;-59
2022/10/12 02:23:01;;;;;;;9.15;3.08;;;10.50;74.30;;;;;;5115554;28;20038;-60
2022/10/12 02:25:27;;;;;;;9.60;3.25;;;10.50;74.30;;;;;;5114582;27;20042;-60
2022/10/12 02:28:04;;;;;;;8.13;3.17;;;10.40;74.30;;;;;;5116030;28;20480;-60
2022/10/12 02:30:37;;;;;;;6.82;3.03;;;10.50;74.30;;;;;;5114434;28;20051;-59
2022/10/12 02:33:19;;;;;;;8.27;2.63;;;10.40;74.30;;;;;;5113766;27;20382;-60
2022/10/12 02:36:00;;;;;;;11.00;3.05;;;10.40;74.30;;;;;;5130971;27;20034;-60
2022/10/12 02:38:33;;;;;;;6.20;2.42;;;10.40;74.30;;;;;;5116048;28;20023;-60
2022/10/12 02:41:08;;;;;;;6.10;2.40;;;10.40;74.30;;;;;;5114818;28;20027;-60
2022/10/12 02:43:41;;;;;;;8.38;2.92;;;10.40;74.40;;;;;;5110794;27;20031;-60
2022/10/12 02:46:09;;;;;;;6.85;2.40;;;10.30;74.30;;;;;;5114052;27;20027;-60
2022/10/12 02:48:40;;;;;;;9.30;2.70;;;10.30;74.30;;;;;;5115639;28;20110;-60
2022/10/12 02:51:08;;;;;;;7.97;3.13;;;10.30;74.30;;;;;;5119069;27;20032;-60
2022/10/12 02:53:34;;;;;;;8.10;2.70;;;10.30;74.30;;;;;;5114816;27;20104;-59
2022/10/12 02:56:04;;;;;;;7.82;2.67;;;10.30;74.30;;;;;;5114671;27;20027;-60
2022/10/12 02:58:29;;;;;;;7.13;2.55;;;10.30;74.40;;;;;;5114628;28;20055;-60
2022/10/12 03:00:55;;;;;;;7.90;2.60;;;10.30;74.40;;;;;;5118273;27;20092;-60
2022/10/12 03:03:21;;;;;;;8.70;3.05;;;10.30;74.50;;;;;;5114397;27;20031;-60
2022/10/12 03:05:46;;;;;;;10.30;3.40;;;10.30;74.50;;;;;;5115164;28;20039;-61
2022/10/12 03:08:12;;;;;;;8.23;2.88;;;10.30;74.50;;;;;;5115493;28;20035;-60
2022/10/12 03:10:37;;;;;;;10.18;3.28;;;10.30;74.50;;;;;;5117719;27;20466;-60
2022/10/12 03:13:03;;;;;;;8.48;2.60;;;10.30;74.50;;;;;;5112533;28;20072;-60
2022/10/12 03:15:29;;;;;;;8.13;2.92;;;10.30;74.50;;;;;;5118949;27;20447;-60
2022/10/12 03:17:55;;;;;;;8.48;3.03;;;10.20;74.40;;;;;;5117520;27;20030;-60
2022/10/12 03:20:20;;;;;;;10.35;3.08;;;10.20;74.40;;;;;;5120985;27;20027;-60
2022/10/12 03:22:46;;;;;;;8.45;2.83;;;10.20;74.40;;;;;;5130914;27;20460;-59
2022/10/12 03:25:11;;;;;;;7.97;2.60;;;10.20;74.40;;;;;;5113566;28;20448;-60
2022/10/12 03:27:37;;;;;;;9.55;3.22;;;10.20;74.50;;;;;;5113437;28;20023;-60
2022/10/12 03:30:03;;;;;;;6.72;2.50;;;10.20;74.40;;;;;;5119762;27;20055;-60
2022/10/12 03:32:29;;;;;;;8.25;2.92;;;10.20;74.40;;;;;;5121152;27;20026;-59
2022/10/12 03:34:55;;;;;;;7.25;2.50;;;10.20;74.50;;;;;;5117899;27;20023;-60
2022/10/12 03:37:21;;;;;;;8.60;3.08;;;10.20;74.50;;;;;;5121881;27;20040;-60
2022/10/12 03:39:46;;;;;;;10.77;3.28;;;10.10;74.50;;;;;;5115742;28;20050;-60
2022/10/12 03:42:12;;;;;;;8.85;3.35;;;10.10;74.40;;;;;;5118655;27;20058;-59
2022/10/12 03:44:38;;;;;;;8.27;3.10;;;10.10;74.40;;;;;;5114132;28;20176;-60
2022/10/12 03:47:04;;;;;;;8.30;3.13;;;10.10;74.30;;;;;;5113464;28;20110;-59
2022/10/12 03:49:29;;;;;;;8.52;3.15;;;10.10;74.30;;;;;;5120823;28;20019;-60
2022/10/12 03:51:55;;;;;;;9.15;2.78;;;10.00;74.30;;;;;;5124456;28;20031;-59
2022/10/12 03:54:20;;;;;;;7.68;2.50;;;10.10;74.40;;;;;;5099519;28;20033;-59
2022/10/12 03:56:46;;;;;;;9.70;3.28;;;10.10;74.40;;;;;;5110757;28;20020;-60
2022/10/12 03:59:12;;;;;;;7.35;2.65;;;10.00;74.30;;;;;;5110488;28;20507;-60
2022/10/12 04:01:37;;;;;;;7.93;2.90;;;10.00;74.30;;;;;;5117421;27;20030;-60
2022/10/12 04:04:03;;;;;;;7.32;3.03;;;10.00;74.40;;;;;;5096061;28;20024;-60
2022/10/12 04:06:29;;;;;;;7.55;2.78;;;10.00;74.40;;;;;;5096610;28;20032;-60
2022/10/12 04:08:54;;;;;;;8.00;3.20;;;10.00;74.30;;;;;;5109869;28;20131;-59
2022/10/12 04:11:20;;;;;;;10.40;3.13;;;9.90;74.30;;;;;;5095218;28;20028;-60
2022/10/12 04:13:46;;;;;;;9.27;2.95;;;9.90;74.30;;;;;;5096159;28;20023;-59
2022/10/12 04:16:11;;;;;;;8.02;2.70;;;9.90;74.30;;;;;;5110828;28;20060;-60
2022/10/12 04:18:37;;;;;;;8.85;2.90;;;9.90;74.30;;;;;;5100355;28;20056;-60
2022/10/12 04:21:07;;;;;;;9.68;3.45;;;9.90;74.30;;;;;;5105415;28;20435;-59
2022/10/12 04:23:33;;;;;;;7.53;2.83;;;9.80;74.20;;;;;;5123787;27;20020;-60
2022/10/12 04:25:59;;;;;;;9.13;3.15;;;9.80;74.30;;;;;;5113956;28;20509;-60
2022/10/12 04:28:24;;;;;;;8.85;2.85;;;9.80;74.30;;;;;;5113942;28;20110;-60
2022/10/12 04:30:50;;;;;;;9.85;3.58;;;9.80;74.30;;;;;;5113504;28;20027;-59
2022/10/12 04:33:15;;;;;;;10.65;3.38;;;9.80;74.30;;;;;;5113656;28;20035;-60
2022/10/12 04:35:41;;;;;;;10.38;3.92;;;9.80;74.30;;;;;;5112242;28;20020;-61
2022/10/12 04:38:07;;;;;;;9.07;3.83;;;9.80;74.30;;;;;;5112141;28;20479;-60
2022/10/12 04:40:32;;;;;;;10.57;3.67;;;9.80;74.30;;;;;;5112563;28;20019;-60
2022/10/12 04:42:58;;;;;;;12.25;3.95;;;9.70;74.20;;;;;;5113241;28;20032;-60
2022/10/12 04:45:24;;;;;;;10.98;3.58;;;9.70;74.30;;;;;;5111830;28;20032;-60
2022/10/12 04:47:49;;;;;;;9.85;4.03;;;9.70;74.30;;;;;;5110847;28;20024;-60
2022/10/12 04:50:15;;;;;;;9.00;3.92;;;9.70;74.30;;;;;;5112755;28;20039;-60
2022/10/12 04:52:41;;;;;;;9.55;3.88;;;9.70;74.30;;;;;;5113230;28;20166;-59
2022/10/12 04:55:07;;;;;;;10.20;4.03;;;9.70;74.30;;;;;;5115815;27;20078;-60
2022/10/12 04:57:32;;;;;;;9.40;4.38;;;9.60;74.20;;;;;;5117087;28;20452;-60
2022/10/12 04:59:58;;;;;;;10.80;3.80;;;9.70;74.30;;;;;;5116765;27;20060;-60
2022/10/12 05:02:24;;;;;;;9.20;4.32;;;9.60;74.20;;;;;;5116522;27;20039;-60
2022/10/12 05:04:50;;;;;;;9.95;3.90;;;9.60;74.30;;;;;;5116265;27;20034;-60
2022/10/12 05:07:16;;;;;;;8.48;3.85;;;9.60;74.30;;;;;;5116538;28;20024;-60
2022/10/12 05:09:41;;;;;;;9.82;3.33;;;9.60;74.30;;;;;;5116969;28;20024;-60
2022/10/12 05:12:07;;;;;;;8.82;4.13;;;9.60;74.30;;;;;;5116378;27;20035;-60
2022/10/12 05:14:32;;;;;;;9.82;4.30;;;9.50;74.30;;;;;;5116942;28;20049;-59
2022/10/12 05:16:58;;;;;;;9.52;3.45;;;9.50;74.20;;;;;;5116160;27;20035;-60
2022/10/12 05:19:24;;;;;;;10.05;3.88;;;9.50;74.20;;;;;;5121390;27;20047;-60
2022/10/12 05:21:49;;;;;;;9.30;4.05;;;9.50;74.30;;;;;;5120556;27;20102;-60
2022/10/12 05:24:15;;;;;;;11.05;4.53;;;9.50;74.30;;;;;;5117412;28;20027;-60
2022/10/12 05:26:40;;;;;;;9.02;4.22;;;9.50;74.20;;;;;;5115745;27;20085;-60
2022/10/12 05:29:06;;;;;;;9.68;4.20;;;9.40;74.20;;;;;;5117684;28;20084;-60
2022/10/12 05:31:32;;;;;;;8.25;3.88;;;9.40;74.30;;;;;;5116275;27;20333;-60
2022/10/12 05:33:57;;;;;;;14.93;4.82;;;9.50;74.30;;;;;;5120872;27;20045;-59
2022/10/12 05:36:23;;;;;;;10.40;5.00;;;9.40;74.90;;;;;;5117386;27;20024;-60
2022/10/12 05:38:48;;;;;;;10.85;4.55;;;9.40;74.20;;;;;;5117302;27;20436;-60
2022/10/12 05:41:14;;;;;;;8.75;5.07;;;9.40;74.20;;;;;;5116255;28;20015;-60
2022/10/12 05:43:40;;;;;;;10.65;4.50;;;9.40;74.20;;;;;;5115533;28;20429;-60
2022/10/12 05:46:05;;;;;;;10.60;4.43;;;9.40;74.20;;;;;;5115947;27;20114;-60
2022/10/12 05:48:32;;;;;;;11.23;5.22;;;9.40;74.20;;;;;;5115305;28;20390;-60
2022/10/12 05:50:57;;;;;;;9.82;4.50;;;9.40;74.20;;;;;;5097499;28;20031;-60
2022/10/12 05:53:23;;;;;;;10.80;4.53;;;9.40;74.20;;;;;;5113375;28;20027;-60
2022/10/12 05:55:57;;;;;;;10.40;4.85;;;9.50;74.20;;;;;;5114788;28;20026;-60
2022/10/12 05:58:24;;;;;;;9.48;4.85;;;9.50;74.20;;;;;;5113764;28;20019;-60
2022/10/12 06:00:50;;;;;;;10.93;5.15;;;9.50;74.20;;;;;;5114529;28;20036;-60
2022/10/12 06:03:15;;;;;;;12.32;5.65;;;9.50;74.20;;;;;;5096601;28;20035;-60
2022/10/12 06:05:42;;;;;;;11.35;4.93;;;9.40;74.20;;;;;;5110383;28;20368;-60
2022/10/12 06:08:07;;;;;;;10.60;5.15;;;9.50;74.30;;;;;;5114152;28;20027;-61
2022/10/12 06:10:34;;;;;;;12.93;5.68;;;9.50;74.30;;;;;;5114783;28;20494;-60
2022/10/12 06:13:00;;;;;;;12.60;5.95;;;9.40;74.20;;;;;;5112782;28;20023;-60
2022/10/12 06:15:26;;;;;;;11.32;5.05;;;9.50;74.20;;;;;;5112251;28;20073;-60
2022/10/12 06:17:52;;;;;;;14.32;5.53;;;9.50;74.20;;;;;;5112835;27;20497;-60
2022/10/12 06:20:17;;;;;;;10.82;5.75;;;9.50;74.20;;;;;;5115532;27;20031;-61
2022/10/12 06:22:43;;;;;;;10.88;5.70;;;9.50;74.30;;;;;;5115157;28;20351;-60
2022/10/12 06:25:09;;;;;;;12.07;6.07;;;9.50;74.30;;;;;;5117217;28;20054;-60
2022/10/12 06:27:34;;;;;;;10.70;5.63;;;9.50;74.40;;;;;;5115028;28;20126;-60
2022/10/12 06:30:00;;;;;;;11.45;5.28;;;9.60;74.40;;;;;;5115999;28;20032;-60
2022/10/12 06:32:26;;;;;;;12.40;6.60;;;9.60;74.40;;;;;;5114945;28;20022;-60
2022/10/12 06:34:51;;;;;;;14.55;6.20;;;9.70;74.40;;;;;;5114545;27;20076;-60
2022/10/12 06:37:17;;;;;;;14.77;6.88;;;9.70;74.40;;;;;;5114364;27;20376;-60
2022/10/12 06:39:42;;;;;;;13.00;6.82;;;9.80;74.40;;;;;;5116726;27;20031;-65
2022/10/12 06:42:10;;;;;;;13.95;6.63;;;9.90;74.50;;;;;;5114399;28;20095;-60
2022/10/12 06:44:44;;;;;;;15.02;6.40;;;9.90;74.50;;;;;;5113466;28;20035;-61
2022/10/12 06:47:10;;;;;;;14.27;8.15;;;10.00;74.40;;;;;;5115117;28;20366;-60
2022/10/12 06:49:35;;;;;;;19.17;8.75;;;10.00;74.40;;;;;;5114126;28;20023;-61
2022/10/12 06:52:01;;;;;;;20.10;10.82;;;10.00;74.50;;;;;;5098193;28;20415;-60
2022/10/12 06:54:26;;;;;;;13.60;8.32;;;10.10;74.50;;;;;;5114132;27;20107;-61
2022/10/12 06:56:53;;;;;;;16.88;7.78;;;10.20;74.50;;;;;;5114801;28;20028;-59
2022/10/12 06:59:21;;;;;;;19.30;8.63;;;10.20;74.50;;;;;;5113969;28;20035;-60
2022/10/12 07:01:48;;;;;;;14.88;7.32;;;10.20;74.50;;;;;;5114535;28;20027;-60
2022/10/12 07:04:15;;;;;;;14.98;7.47;;;10.20;74.60;;;;;;5114929;28;20035;-60
2022/10/12 07:06:41;;;;;;;14.73;7.03;;;10.20;74.60;;;;;;5114376;28;20024;-60
2022/10/12 07:09:07;;;;;;;16.25;6.72;;;10.20;74.60;;;;;;5113626;27;20024;-60
2022/10/12 07:11:32;;;;;;;19.52;6.97;;;10.20;75.30;;;;;;5113041;28;20027;-60
2022/10/12 07:13:58;;;;;;;14.52;6.78;;;10.20;74.60;;;;;;5095745;28;20030;-61
2022/10/12 07:16:24;;;;;;;13.95;6.45;;;10.30;74.70;;;;;;5114222;28;20055;-60
2022/10/12 07:18:49;;;;;;;12.32;6.00;;;10.30;74.70;;;;;;5113560;28;20106;-61
2022/10/12 07:21:15;;;;;;;14.77;6.45;;;10.30;74.80;;;;;;5113927;28;20028;-60
2022/10/12 07:23:41;;;;;;;15.07;6.80;;;10.30;74.70;;;;;;5113411;28;20023;-62
2022/10/12 07:26:08;;;;;;;12.75;6.30;;;10.30;74.70;;;;;;5114919;28;20043;-59
2022/10/12 07:28:36;;;;;;;12.20;6.72;;;10.40;74.80;;;;;;5112086;27;20387;-60
2022/10/12 07:31:06;;;;;;;16.77;7.38;;;10.40;74.60;;;;;;5113319;28;20039;-59
2022/10/12 07:33:33;;;;;;;17.63;10.05;;;10.50;74.60;;;;;;5110171;28;20026;-60
2022/10/12 07:36:00;;;;;;;51.90;35.13;;;10.50;74.60;;;;;;5113081;28;20024;-60
2022/10/12 07:38:26;;;;;;;42.35;30.48;;;10.60;75.20;;;;;;5105862;28;20027;-62
2022/10/12 07:40:52;;;;;;;28.73;20.58;;;10.70;74.50;;;;;;5085985;28;20015;-61
2022/10/12 07:43:18;;;;;;;23.38;14.23;;;10.80;74.40;;;;;;5112094;27;20037;-60
2022/10/12 07:45:44;;;;;;;17.30;11.07;;;10.80;74.40;;;;;;5112606;28;20035;-61
2022/10/12 07:48:09;;;;;;;15.85;9.50;;;10.80;74.30;;;;;;5112086;28;20032;-60
2022/10/12 07:50:35;;;;;;;16.17;8.75;;;10.90;74.40;;;;;;5127211;28;20031;-60
2022/10/12 07:53:00;;;;;;;13.75;7.30;;;10.90;74.40;;;;;;5118012;28;20027;-62
2022/10/12 07:55:26;;;;;;;14.23;8.32;;;10.90;74.40;;;;;;5110514;28;20028;-61
2022/10/12 07:57:52;;;;;;;13.93;7.55;;;10.90;74.50;;;;;;5111365;28;20093;-61
2022/10/12 08:00:19;;;;;;;18.33;10.93;;;10.80;74.60;;;;;;5109229;28;20112;-61
2022/10/12 08:02:45;;;;;;;14.98;9.82;;;10.90;74.60;;;;;;5114043;28;20036;-62
2022/10/12 08:05:12;;;;;;;16.48;8.48;;;10.90;74.70;;;;;;5126938;28;20112;-62
2022/10/12 08:07:37;;;;;;;14.18;8.45;;;10.90;74.70;;;;;;5122765;28;20443;-61
2022/10/12 08:10:03;;;;;;;14.52;7.85;;;10.90;74.70;;;;;;5120597;28;20023;-61
2022/10/12 08:12:29;;;;;;;17.05;8.75;;;11.00;74.60;;;;;;5129824;28;20024;-61
2022/10/12 08:14:54;;;;;;;15.98;8.65;;;11.10;74.60;;;;;;5114759;28;20047;-61
2022/10/12 08:17:20;;;;;;;14.38;8.32;;;11.10;74.50;;;;;;5112664;28;20027;-62
2022/10/12 08:19:46;;;;;;;15.55;8.48;;;11.20;74.40;;;;;;5120059;28;20055;-62
2022/10/12 08:22:11;;;;;;;18.48;9.02;;;11.30;74.20;;;;;;5105085;28;20036;-62
2022/10/12 08:24:37;;;;;;;16.05;8.45;;;11.40;73.80;;;;;;5114523;28;20043;-62
2022/10/12 08:27:03;;;;;;;15.75;8.98;;;11.60;74.10;;;;;;5112523;28;20165;-61
2022/10/12 08:29:29;;;;;;;18.10;9.32;;;11.70;73.10;;;;;;5116283;28;20018;-61
2022/10/12 08:31:54;;;;;;;19.50;10.18;;;11.80;72.90;;;;;;5117571;28;20141;-61
2022/10/12 08:34:20;;;;;;;21.10;10.20;;;12.00;72.70;;;;;;5116913;28;20122;-62
2022/10/12 08:36:46;;;;;;;15.82;9.98;;;12.30;72.40;;;;;;5118730;28;20024;-60
2022/10/12 08:39:11;;;;;;;16.10;9.80;;;12.50;71.90;;;;;;5115716;28;20047;-60
2022/10/12 08:42:06;;;;;;;17.52;9.38;;;12.70;71.50;;;;;;5110342;27;20444;-61
2022/10/12 08:44:43;;;;;;;17.15;9.75;;;12.90;71.00;;;;;;5101442;28;20152;-61
2022/10/12 08:47:33;;;;;;;16.77;9.55;;;13.20;70.50;;;;;;5132765;27;20028;-61
2022/10/12 08:50:02;;;;;;;17.38;9.75;;;13.40;70.00;;;;;;5118165;28;20023;-61
2022/10/12 08:52:32;;;;;;;17.42;10.85;;;13.70;69.40;;;;;;5117104;28;20110;-61
2022/10/12 08:55:19;;;;;;;19.17;10.13;;;13.90;68.70;;;;;;5115694;28;20029;-61
2022/10/12 08:57:45;;;;;;;19.02;9.68;;;14.00;68.40;;;;;;5117458;27;20043;-61
2022/10/12 09:00:14;;;;;;;18.67;9.02;;;13.90;68.50;;;;;;5100360;28;20031;-61
2022/10/12 09:03:17;;;;;;;15.18;9.05;;;13.70;68.70;;;;;;5134323;27;20024;-61
2022/10/12 09:06:05;;;;;;;14.95;8.00;;;13.60;69.00;;;;;;5099649;28;20112;-61
2022/10/12 09:08:56;;;;;;;14.00;7.65;;;13.90;68.80;;;;;;5117332;28;20116;-61
2022/10/12 09:11:32;;;;;;;13.80;7.35;;;14.10;68.20;;;;;;5104979;28;20110;-62
2022/10/12 09:14:08;;;;;;;13.88;8.00;;;14.30;67.80;;;;;;5117157;28;20136;-61
2022/10/12 09:16:39;;;;;;;14.73;7.15;;;14.50;67.30;;;;;;5134554;27;20039;-61
2022/10/12 09:19:31;;;;;;;16.42;7.80;;;14.70;67.00;;;;;;5132990;27;20052;-61
2022/10/12 09:21:57;;;;;;;13.13;7.43;;;14.90;66.50;;;;;;5117734;28;20157;-62
2022/10/12 09:24:27;;;;;;;12.35;7.63;;;15.10;66.20;;;;;;5114934;28;20095;-61
2022/10/12 09:26:59;;;;;;;16.08;8.48;;;15.30;65.60;;;;;;5125433;27;20031;-60
2022/10/12 09:29:28;;;;;;;15.63;8.05;;;15.50;66.00;;;;;;5119144;27;20165;-61
2022/10/12 09:32:40;;;;;;;15.85;8.80;;;15.60;65.10;;;;;;5133202;27;20440;-60
2022/10/12 09:35:07;;;;;;;;;;;15.80;64.70;;;;;;5115921;28;20031;-61
2022/10/12 09:37:34;;;;;;;12.30;5.95;;;15.80;64.80;;;;;;5116224;28;19914;-61
2022/10/12 09:40:00;;;;;;;15.68;6.80;;;16.00;64.60;;;;;;5114254;28;20035;-61
2022/10/12 09:42:26;;;;;;;16.23;7.63;;;16.00;64.20;;;;;;5115611;28;20035;-60
2022/10/12 09:44:58;;;;;;;17.83;7.55;;;16.10;63.80;;;;;;5125182;27;20399;-61
2022/10/12 09:47:30;;;;;;;14.10;7.38;;;15.90;63.50;;;;;;5139811;27;20031;-62
2022/10/12 09:50:06;;;;;;;12.68;7.72;;;15.90;63.80;;;;;;5114219;28;20116;-61
2022/10/12 09:52:41;;;;;;;14.85;7.85;;;16.00;63.60;;;;;;5117647;27;20024;-61
2022/10/12 09:55:22;;;;;;;12.80;7.05;;;16.00;63.50;;;;;;5108159;27;20020;-61
2022/10/12 09:57:56;;;;;;;15.93;7.68;;;16.20;63.50;;;;;;5103078;28;20470;-60
2022/10/12 10:00:22;;;;;;;14.57;7.95;;;16.30;63.20;;;;;;5112234;27;20111;-62
2022/10/12 10:02:49;;;;;;;16.23;8.00;;;16.40;63.00;;;;;;5107003;28;20123;-61
2022/10/12 10:05:24;;;;;;;13.18;7.70;;;16.50;62.70;;;;;;5116868;27;20032;-61
2022/10/12 10:07:50;;;;;;;13.20;7.57;;;16.60;62.40;;;;;;5103505;28;20146;-61
2022/10/12 10:10:21;;;;;;;12.73;7.32;;;16.70;62.30;;;;;;5098203;28;20182;-61
2022/10/12 10:12:54;;;;;;;;;;;16.80;61.90;;;;;;5105329;28;20108;-61
2022/10/12 10:15:28;;;;;;;13.75;7.38;;;16.90;62.10;;;;;;5130802;27;19958;-61
2022/10/12 10:18:17;;;;;;;13.20;7.38;;;16.90;62.00;;;;;;5114863;27;20030;-60
2022/10/12 10:20:52;;;;;;;14.70;7.95;;;16.90;61.80;;;;;;5102574;28;20479;-60
2022/10/12 10:23:24;;;;;;;15.82;7.60;;;17.00;61.80;;;;;;5116039;27;20429;-61
2022/10/12 10:26:02;;;;;;;13.90;7.80;;;17.00;61.70;;;;;;5102147;28;20042;-61
2022/10/12 10:28:31;;;;;;;14.35;7.57;;;16.90;61.70;;;;;;5133602;27;20042;-60
2022/10/12 10:31:26;;;;;;;16.85;9.63;;;16.90;61.90;;;;;;5115288;28;20035;-61
2022/10/12 10:34:15;;;;;;;13.40;8.60;;;17.00;61.70;;;;;;5111998;28;20493;-60
2022/10/12 10:36:49;;;;;;;14.13;8.52;;;17.10;61.40;;;;;;5115248;27;20028;-60
2022/10/12 10:39:19;;;;;;;19.33;10.27;;;17.20;61.50;;;;;;5114958;28;20036;-60
2022/10/12 10:41:46;;;;;;;14.45;9.32;;;17.30;61.30;;;;;;5114461;28;20027;-60
2022/10/12 10:44:33;;;;;;;14.63;8.82;;;17.30;61.20;;;;;;5115833;28;20019;-60
2022/10/12 10:47:11;;;;;;;18.50;9.90;;;17.30;60.70;;;;;;5115243;27;20035;-60
2022/10/12 10:50:02;;;;;;;15.07;9.52;;;17.30;60.80;;;;;;5115898;27;20364;-60
2022/10/12 10:52:29;;;;;;;;;;;17.40;60.80;;;;;;5126641;27;20075;-60
2022/10/12 10:55:25;;;;;;;15.27;8.68;;;17.30;61.20;;;;;;5115633;28;19908;-60
2022/10/12 10:58:14;;;;;;;15.70;10.23;;;17.20;61.20;;;;;;5112972;27;20047;-60
2022/10/12 11:00:43;;;;;;;16.63;9.73;;;17.00;61.50;;;;;;5104216;28;20047;-60
2022/10/12 11:03:15;;;;;;;18.50;11.18;;;16.80;61.70;;;;;;5129722;27;20039;-60
2022/10/12 11:05:50;;;;;;;19.45;11.40;;;16.80;61.90;;;;;;5115860;28;20019;-60
2022/10/12 11:08:24;;;;;;;17.02;10.82;;;16.80;61.90;;;;;;5115086;28;20049;-60
2022/10/12 11:11:00;;;;;;;19.00;11.50;;;16.80;62.00;;;;;;5119802;27;20023;-60
2022/10/12 11:13:58;;;;;;;15.90;9.95;;;16.80;61.90;;;;;;5114282;28;20023;-61
2022/10/12 11:16:33;;;;;;;18.25;10.73;;;16.80;62.10;;;;;;5109812;28;20039;-61
2022/10/12 11:19:28;;;;;;;17.70;10.63;;;16.80;61.90;;;;;;5118206;27;20035;-60
2022/10/12 11:21:56;;;;;;;17.27;10.55;;;16.90;61.90;;;;;;5113666;28;20406;-60
2022/10/12 11:24:27;;;;;;;16.42;9.50;;;17.10;61.80;;;;;;5115215;28;20027;-60
2022/10/12 11:27:13;;;;;;;18.30;9.50;;;17.20;61.60;;;;;;5113735;28;20027;-60
2022/10/12 11:29:38;;;;;;;15.80;9.57;;;17.40;60.90;;;;;;5113468;28;20051;-60
2022/10/12 11:32:23;;;;;;;14.30;8.68;;;17.50;60.70;;;;;;5114598;28;20364;-60
2022/10/12 11:34:54;;;;;;;14.57;9.90;;;17.60;60.50;;;;;;5111906;27;20035;-60
2022/10/12 11:37:28;;;;;;;15.55;9.27;;;17.70;60.40;;;;;;5115768;27;20027;-61
2022/10/12 11:39:57;;;;;;;16.85;9.05;;;17.70;60.30;;;;;;5111981;28;20032;-60
2022/10/12 11:42:33;;;;;;;16.75;9.63;;;17.70;60.00;;;;;;5124922;27;20039;-60
2022/10/12 11:45:03;;;;;;;15.15;8.52;;;17.70;59.70;;;;;;5110788;28;20112;-60
2022/10/12 11:47:30;;;;;;;14.90;7.80;;;17.70;59.80;;;;;;5120794;27;20067;-60
2022/10/12 11:50:16;;;;;;;14.82;8.15;;;17.70;59.80;;;;;;5115211;28;20746;-60
2022/10/12 11:52:46;;;;;;;15.30;7.93;;;17.70;59.60;;;;;;5114418;28;20016;-60
2022/10/12 11:55:45;;;;;;;15.55;7.03;;;17.80;59.60;;;;;;5115261;28;20062;-61
2022/10/12 11:58:34;;;;;;;17.60;7.97;;;17.80;59.50;;;;;;5115135;28;20039;-61
2022/10/12 12:01:11;;;;;;;14.02;8.05;;;17.80;59.30;;;;;;5122130;28;20027;-60
2022/10/12 12:03:44;;;;;;;15.05;7.78;;;17.70;59.20;;;;;;5115452;28;20039;-60
2022/10/12 12:06:28;;;;;;;11.55;7.25;;;17.60;59.20;;;;;;5116599;28;20065;-60
2022/10/12 12:08:53;;;;;;;15.63;7.70;;;17.50;59.10;;;;;;5124590;27;20031;-61
2022/10/12 12:11:25;;;;;;;17.45;8.23;;;17.50;59.30;;;;;;5118494;27;20146;-60
2022/10/12 12:14:19;;;;;;;16.92;8.70;;;17.40;59.40;;;;;;5126000;27;20428;-60
2022/10/12 12:16:47;;;;;;;13.55;8.10;;;17.30;59.50;;;;;;5108102;27;20031;-60
2022/10/12 12:19:32;;;;;;;20.80;9.00;;;17.20;59.80;;;;;;5120816;27;20035;-60
2022/10/12 12:22:22;;;;;;;17.30;9.57;;;17.10;60.00;;;;;;5113997;28;20077;-60
2022/10/12 12:24:53;;;;;;;17.45;9.07;;;16.90;60.00;;;;;;5118823;27;20132;-60
2022/10/12 12:27:35;;;;;;;16.48;9.32;;;16.80;60.20;;;;;;5114448;27;20043;-60
2022/10/12 12:30:21;;;;;;;19.25;9.52;;;16.70;60.30;;;;;;5110932;28;20022;-59
2022/10/12 12:32:51;;;;;;;16.25;8.82;;;16.60;60.40;;;;;;5104235;28;20537;-60
2022/10/12 12:35:24;;;;;;;16.83;8.93;;;16.70;60.40;;;;;;5117594;28;20023;-60
2022/10/12 12:38:11;;;;;;;14.93;7.13;;;16.70;60.40;;;;;;5116049;28;20133;-61
2022/10/12 12:40:38;;;;;;;14.88;7.55;;;16.80;60.10;;;;;;5116230;28;20052;-60
2022/10/12 12:43:27;;;;;;;13.05;7.70;;;16.70;60.00;;;;;;5118411;27;20103;-60
2022/10/12 12:46:01;;;;;;;12.40;5.53;;;16.60;60.00;;;;;;5115687;28;20035;-60
2022/10/12 12:48:38;;;;;;;14.02;4.63;;;16.50;60.10;;;;;;5115822;28;20080;-59
2022/10/12 12:51:17;;;;;;;13.07;4.07;;;16.40;60.00;;;;;;5117264;27;20401;-60
2022/10/12 12:53:49;;;;;;;9.80;4.07;;;16.40;59.90;;;;;;5116517;28;20038;-60
2022/10/12 12:56:48;;;;;;;13.48;4.95;;;16.30;59.80;;;;;;5114765;28;20630;-60
2022/10/12 12:59:41;;;;;;;12.90;4.60;;;16.30;59.70;;;;;;5115696;28;20345;-62
2022/10/12 13:02:28;;;;;;;11.10;4.88;;;16.30;60.00;;;;;;5113234;28;20448;-62
2022/10/12 13:05:24;;;;;;;12.05;5.68;;;16.30;60.00;;;;;;5114316;28;20052;-60